createdAt,value
2022-08-04T00:00:54.885Z,21.90
2022-08-04T00:02:09.463Z,21.90
2022-08-04T00:03:19.083Z,21.80
2022-08-04T00:04:32.982Z,21.80
2022-08-04T00:05:52.823Z,21.80
2022-08-04T00:07:07.102Z,21.70
2022-08-04T00:08:19.941Z,21.70
2022-08-04T00:09:31.294Z,21.70
2022-08-04T00:10:36.133Z,21.70
2022-08-04T00:11:47.411Z,21.70
2022-08-04T00:12:55.356Z,21.70
2022-08-04T00:14:04.605Z,21.70
2022-08-04T00:15:10.584Z,21.70
2022-08-04T00:16:22.351Z,21.70
2022-08-04T00:17:34.420Z,21.60
2022-08-04T00:18:42.623Z,21.60
2022-08-04T00:19:47.396Z,21.60
2022-08-04T00:20:52.882Z,21.60
2022-08-04T00:22:00.470Z,21.60
2022-08-04T00:23:06.923Z,21.60
2022-08-04T00:24:12.947Z,21.70
2022-08-04T00:25:17.994Z,21.70
2022-08-04T00:26:22.924Z,21.70
2022-08-04T00:27:32.675Z,21.60
2022-08-04T00:28:42.743Z,21.60
2022-08-04T00:29:49.257Z,21.60
2022-08-04T00:30:56.636Z,21.60
2022-08-04T00:32:02.681Z,21.60
2022-08-04T00:33:05.579Z,21.60
2022-08-04T00:34:13.036Z,21.60
2022-08-04T00:35:15.797Z,21.50
2022-08-04T00:36:20.035Z,21.60
2022-08-04T00:37:22.692Z,21.60
2022-08-04T00:38:27.151Z,21.60
2022-08-04T00:39:31.711Z,21.60
2022-08-04T00:40:57.233Z,21.60
2022-08-04T00:42:23.682Z,21.60
2022-08-04T00:43:33.814Z,21.60
2022-08-04T00:44:44.437Z,21.60
2022-08-04T00:46:17.818Z,21.60
2022-08-04T00:47:37.702Z,21.60
2022-08-04T00:48:57.740Z,21.60
2022-08-04T00:50:08.212Z,21.50
2022-08-04T00:51:22.816Z,21.50
2022-08-04T00:52:56.867Z,21.50
2022-08-04T00:54:06.893Z,21.50
2022-08-04T00:55:24.016Z,21.50
2022-08-04T00:56:53.153Z,21.50
2022-08-04T00:58:16.595Z,21.40
2022-08-04T00:59:37.427Z,21.50
2022-08-04T01:00:59.789Z,21.40
2022-08-04T01:02:11.722Z,21.40
2022-08-04T01:03:23.326Z,21.40
2022-08-04T01:04:45.039Z,21.40
2022-08-04T01:06:03.467Z,21.40
2022-08-04T01:07:27.991Z,21.40
2022-08-04T01:08:50.474Z,21.40
2022-08-04T01:10:02.454Z,21.40
2022-08-04T01:11:20.877Z,21.40
2022-08-04T01:12:47.013Z,21.30
2022-08-04T01:14:25.600Z,21.30
2022-08-04T01:15:59.263Z,21.30
2022-08-04T01:17:15.315Z,21.30
2022-08-04T01:18:25.339Z,21.20
2022-08-04T01:19:56.101Z,21.20
2022-08-04T01:21:18.574Z,21.20
2022-08-04T01:22:50.200Z,21.20
2022-08-04T01:24:15.682Z,21.20
2022-08-04T01:25:42.852Z,21.20
2022-08-04T01:26:58.024Z,21.20
2022-08-04T01:28:23.880Z,21.20
2022-08-04T01:29:43.937Z,21.20
2022-08-04T01:30:52.313Z,21.20
2022-08-04T01:32:02.268Z,21.20
2022-08-04T01:33:08.657Z,21.20
2022-08-04T01:34:14.615Z,21.20
2022-08-04T01:35:47.597Z,21.20
2022-08-04T01:36:57.874Z,21.10
2022-08-04T01:38:18.373Z,21.10
2022-08-04T01:39:44.130Z,21.10
2022-08-04T01:40:47.305Z,21.10
2022-08-04T01:41:57.699Z,21.10
2022-08-04T01:43:02.884Z,21.10
2022-08-04T01:44:06.470Z,21.00
2022-08-04T01:45:12.902Z,21.10
2022-08-04T01:46:16.960Z,21.00
2022-08-04T01:47:22.909Z,21.00
2022-08-04T01:48:27.010Z,21.00
2022-08-04T01:49:39.994Z,21.00
2022-08-04T01:50:45.943Z,21.00
2022-08-04T01:51:56.963Z,21.00
2022-08-04T01:53:00.087Z,21.00
2022-08-04T01:54:04.526Z,21.00
2022-08-04T01:55:10.365Z,21.00
2022-08-04T01:56:13.695Z,20.90
2022-08-04T01:57:38.636Z,20.90
2022-08-04T01:58:42.777Z,20.90
2022-08-04T01:59:47.479Z,20.80
2022-08-04T02:00:59.764Z,20.80
2022-08-04T02:02:03.090Z,20.80
2022-08-04T02:03:06.127Z,20.80
2022-08-04T02:04:19.840Z,20.80
2022-08-04T02:05:26.594Z,20.80
2022-08-04T02:07:00.636Z,20.80
2022-08-04T02:08:15.744Z,20.70
2022-08-04T02:09:24.377Z,20.70
2022-08-04T02:10:30.525Z,20.70
2022-08-04T02:11:32.775Z,20.70
2022-08-04T02:12:48.141Z,20.70
2022-08-04T02:13:57.870Z,20.60
2022-08-04T02:15:11.567Z,20.60
2022-08-04T02:16:26.094Z,20.60
2022-08-04T02:17:31.250Z,20.60
2022-08-04T02:18:44.465Z,20.60
2022-08-04T02:20:07.154Z,20.60
2022-08-04T02:21:10.616Z,20.50
2022-08-04T02:22:19.557Z,20.50
2022-08-04T02:23:30.681Z,20.50
2022-08-04T02:24:32.907Z,20.50
2022-08-04T02:25:40.354Z,20.50
2022-08-04T02:26:46.720Z,20.50
2022-08-04T02:28:17.134Z,20.50
2022-08-04T02:29:30.422Z,20.50
2022-08-04T02:30:41.369Z,20.50
2022-08-04T02:31:50.201Z,20.50
2022-08-04T02:32:55.827Z,20.50
2022-08-04T02:34:07.136Z,20.50
2022-08-04T02:35:14.528Z,20.50
2022-08-04T02:36:24.832Z,20.60
2022-08-04T02:37:30.923Z,20.60
2022-08-04T02:38:55.924Z,20.50
2022-08-04T02:40:01.492Z,20.50
2022-08-04T02:41:06.863Z,20.50
2022-08-04T02:42:10.915Z,20.50
2022-08-04T02:43:16.276Z,20.50
2022-08-04T02:44:40.565Z,20.60
2022-08-04T02:45:45.985Z,20.50
2022-08-04T02:46:53.081Z,20.50
2022-08-04T02:48:29.610Z,20.50
2022-08-04T02:49:22.598Z,20.40
2022-08-04T02:50:28.899Z,20.40
2022-08-04T02:51:35.645Z,20.40
2022-08-04T02:52:39.753Z,20.40
2022-08-04T02:53:44.912Z,20.40
2022-08-04T02:54:50.957Z,20.30
2022-08-04T02:55:56.827Z,20.40
2022-08-04T02:57:01.696Z,20.30
2022-08-04T02:58:06.829Z,20.30
2022-08-04T02:59:11.864Z,20.20
2022-08-04T03:00:15.122Z,20.20
2022-08-04T03:01:18.261Z,20.20
2022-08-04T03:02:34.767Z,20.20
2022-08-04T03:03:41.975Z,20.20
2022-08-04T03:04:56.453Z,20.20
2022-08-04T03:06:29.651Z,20.20
2022-08-04T03:07:59.181Z,20.10
2022-08-04T03:09:23.543Z,20.10
2022-08-04T03:11:03.670Z,20.10
2022-08-04T03:12:39.380Z,20.10
2022-08-04T03:14:09.447Z,20.00
2022-08-04T03:15:36.577Z,20.00
2022-08-04T03:17:01.121Z,20.00
2022-08-04T03:18:43.005Z,20.00
2022-08-04T03:20:22.154Z,20.10
2022-08-04T03:21:57.993Z,20.10
2022-08-04T03:23:23.780Z,20.10
2022-08-04T03:24:53.080Z,20.10
2022-08-04T03:26:23.561Z,20.10
2022-08-04T03:27:47.231Z,20.10
2022-08-04T03:29:15.079Z,20.10
2022-08-04T03:30:51.719Z,20.00
2022-08-04T03:32:34.347Z,20.00
2022-08-04T03:34:03.862Z,20.00
2022-08-04T03:35:30.728Z,20.00
2022-08-04T03:36:54.594Z,20.00
2022-08-04T03:38:17.295Z,20.00
2022-08-04T03:40:10.907Z,20.00
2022-08-04T03:41:51.346Z,20.00
2022-08-04T03:43:57.014Z,19.90
2022-08-04T03:45:45.078Z,19.90
2022-08-04T03:47:17.421Z,19.90
2022-08-04T03:48:51.039Z,19.90
2022-08-04T03:50:41.315Z,19.90
2022-08-04T03:52:16.249Z,19.90
2022-08-04T03:53:39.557Z,20.00
2022-08-04T03:55:31.651Z,20.00
2022-08-04T03:56:59.133Z,20.00
2022-08-04T03:58:42.204Z,20.00
2022-08-04T04:00:02.654Z,20.00
2022-08-04T04:01:41.561Z,20.00
2022-08-04T04:03:23.575Z,20.00
2022-08-04T04:05:01.174Z,20.00
2022-08-04T04:06:38.487Z,20.00
2022-08-04T04:08:18.742Z,20.00
2022-08-04T04:10:01.211Z,20.10
2022-08-04T04:11:30.528Z,20.10
2022-08-04T04:13:09.711Z,20.10
2022-08-04T04:14:36.047Z,20.10
2022-08-04T04:16:01.775Z,20.00
2022-08-04T04:17:23.851Z,20.00
2022-08-04T04:18:55.499Z,20.00
2022-08-04T04:20:15.143Z,20.00
2022-08-04T04:21:34.053Z,20.00
2022-08-04T04:22:55.634Z,20.00
2022-08-04T04:24:34.825Z,20.00
2022-08-04T04:25:48.771Z,20.10
2022-08-04T04:26:59.950Z,20.10
2022-08-04T04:28:45.865Z,20.10
2022-08-04T04:30:02.325Z,20.10
2022-08-04T04:31:29.446Z,20.20
2022-08-04T04:32:43.240Z,20.20
2022-08-04T04:33:58.226Z,20.20
2022-08-04T04:35:22.341Z,20.30
2022-08-04T04:36:32.639Z,20.30
2022-08-04T04:37:51.971Z,20.30
2022-08-04T04:39:16.352Z,20.30
2022-08-04T04:40:31.816Z,20.30
2022-08-04T04:41:54.431Z,20.40
2022-08-04T04:43:13.657Z,20.40
2022-08-04T04:44:47.716Z,20.50
2022-08-04T04:45:58.988Z,20.50
2022-08-04T04:47:09.797Z,20.50
2022-08-04T04:48:22.992Z,20.50
2022-08-04T04:49:33.189Z,20.50
2022-08-04T04:50:48.462Z,20.60
2022-08-04T04:51:55.896Z,20.60
2022-08-04T04:53:08.371Z,20.60
2022-08-04T04:54:24.335Z,20.60
2022-08-04T04:55:32.381Z,20.70
2022-08-04T04:56:41.003Z,20.70
2022-08-04T04:57:53.031Z,20.70
2022-08-04T04:58:59.607Z,20.70
2022-08-04T05:00:06.768Z,20.80
2022-08-04T05:01:36.608Z,20.80
2022-08-04T05:03:03.060Z,20.90
2022-08-04T05:04:31.832Z,20.90
2022-08-04T05:05:44.619Z,21.00
2022-08-04T05:07:05.676Z,21.00
2022-08-04T05:08:44.271Z,21.00
2022-08-04T05:10:03.970Z,21.00
2022-08-04T05:11:50.742Z,21.20
2022-08-04T05:14:38.227Z,21.20
2022-08-04T05:14:41.444Z,21.20
2022-08-04T05:15:47.955Z,21.20
2022-08-04T05:16:58.568Z,21.20
2022-08-04T05:18:03.544Z,21.30
2022-08-04T05:19:17.447Z,21.40
2022-08-04T05:20:25.224Z,21.40
2022-08-04T05:21:38.794Z,21.40
2022-08-04T05:22:47.469Z,21.60
2022-08-04T05:23:55.802Z,21.60
2022-08-04T05:25:07.026Z,21.60
2022-08-04T05:26:13.266Z,21.60
2022-08-04T05:27:21.768Z,21.60
2022-08-04T05:28:28.594Z,21.60
2022-08-04T05:29:36.987Z,21.60
2022-08-04T05:30:48.766Z,21.60
2022-08-04T05:31:55.417Z,21.70
2022-08-04T05:33:03.623Z,21.70
2022-08-04T05:34:09.426Z,21.80
2022-08-04T05:35:16.699Z,21.80
2022-08-04T05:36:44.008Z,21.80
2022-08-04T05:38:01.358Z,21.90
2022-08-04T05:39:06.913Z,21.90
2022-08-04T05:40:12.836Z,22.00
2022-08-04T05:41:16.535Z,22.00
2022-08-04T05:42:19.486Z,22.10
2022-08-04T05:43:27.734Z,22.10
2022-08-04T05:44:30.923Z,22.20
2022-08-04T05:45:39.117Z,22.20
2022-08-04T05:46:43.811Z,22.20
2022-08-04T05:47:47.652Z,22.20
2022-08-04T05:48:50.520Z,22.30
2022-08-04T05:50:01.720Z,22.30
2022-08-04T05:51:10.765Z,22.40
2022-08-04T05:52:14.121Z,22.40
2022-08-04T05:53:18.935Z,22.50
2022-08-04T05:54:23.283Z,22.50
2022-08-04T05:55:57.072Z,22.60
2022-08-04T05:56:51.581Z,22.60
2022-08-04T05:57:56.415Z,22.60
2022-08-04T05:59:00.508Z,22.70
2022-08-04T06:00:38.511Z,22.80
2022-08-04T06:01:32.406Z,22.80
2022-08-04T06:02:57.070Z,22.90
2022-08-04T06:04:01.619Z,23.00
2022-08-04T06:05:07.695Z,23.10
2022-08-04T06:06:11.317Z,23.10
2022-08-04T06:07:15.043Z,23.30
2022-08-04T06:08:17.162Z,23.40
2022-08-04T06:09:20.365Z,23.40
2022-08-04T06:10:29.246Z,23.50
2022-08-04T06:12:03.873Z,23.60
2022-08-04T06:13:02.625Z,23.70
2022-08-04T06:14:09.183Z,23.90
2022-08-04T06:15:15.780Z,24.00
2022-08-04T06:16:30.056Z,24.20
2022-08-04T06:19:56.902Z,24.40
2022-08-04T06:20:02.766Z,24.60
2022-08-04T06:20:32.692Z,24.80
2022-08-04T06:21:40.299Z,25.20
2022-08-04T06:22:46.279Z,25.50
2022-08-04T06:23:57.472Z,25.90
2022-08-04T06:25:06.217Z,26.30
2022-08-04T06:26:15.733Z,26.70
2022-08-04T06:27:21.248Z,27.00
2022-08-04T06:28:27.071Z,27.50
2022-08-04T06:29:36.020Z,27.80
2022-08-04T06:30:41.112Z,28.10
2022-08-04T06:32:30.084Z,28.40
2022-08-04T06:33:24.629Z,28.60
2022-08-04T06:34:27.690Z,28.90
2022-08-04T06:35:32.451Z,29.20
2022-08-04T06:36:37.989Z,29.50
2022-08-04T06:37:44.156Z,29.70
2022-08-04T06:38:47.491Z,29.80
2022-08-04T06:40:13.985Z,29.80
2022-08-04T06:41:28.014Z,29.70
2022-08-04T06:42:32.447Z,30.00
2022-08-04T06:43:42.793Z,30.20
2022-08-04T06:44:50.551Z,30.50
2022-08-04T06:45:56.711Z,30.50
2022-08-04T06:47:01.517Z,30.60
2022-08-04T06:48:08.563Z,30.80
2022-08-04T06:49:11.717Z,30.80
2022-08-04T06:51:31.390Z,31.00
2022-08-04T06:51:48.950Z,31.20
2022-08-04T06:52:52.803Z,31.30
2022-08-04T06:53:55.983Z,31.20
2022-08-04T06:54:59.187Z,31.40
2022-08-04T06:56:02.083Z,31.40
2022-08-04T06:57:05.502Z,31.40
2022-08-04T06:58:10.871Z,31.60
2022-08-04T06:59:17.021Z,31.70
2022-08-04T07:00:19.385Z,31.60
2022-08-04T07:01:24.091Z,31.40
2022-08-04T07:02:30.145Z,31.70
2022-08-04T07:03:33.475Z,31.80
2022-08-04T07:04:35.703Z,31.90
2022-08-04T07:05:39.404Z,31.90
2022-08-04T07:06:42.117Z,32.10
2022-08-04T07:07:58.169Z,32.20
2022-08-04T07:09:03.098Z,32.30
2022-08-04T07:10:07.188Z,32.30
2022-08-04T07:11:11.354Z,32.40
2022-08-04T07:12:14.700Z,32.50
2022-08-04T07:13:20.328Z,32.50
2022-08-04T07:14:23.977Z,32.90
2022-08-04T07:15:27.833Z,33.10
2022-08-04T07:16:32.014Z,33.10
2022-08-04T07:17:36.726Z,33.20
2022-08-04T07:18:38.821Z,33.40
2022-08-04T07:19:41.818Z,33.80
2022-08-04T07:20:44.987Z,34.00
2022-08-04T07:22:16.875Z,34.00
2022-08-04T07:23:12.917Z,34.20
2022-08-04T07:24:17.130Z,34.40
2022-08-04T07:25:20.094Z,34.30
2022-08-04T07:26:31.926Z,34.30
2022-08-04T07:27:48.274Z,34.60
2022-08-04T07:28:53.609Z,34.90
2022-08-04T07:29:56.871Z,34.70
2022-08-04T07:31:00.135Z,34.60
2022-08-04T07:32:04.208Z,34.90
2022-08-04T07:33:07.827Z,35.00
2022-08-04T07:34:17.786Z,35.00
2022-08-04T07:36:03.997Z,35.10
2022-08-04T07:36:55.196Z,35.00
2022-08-04T07:37:59.225Z,35.20
2022-08-04T07:39:01.445Z,35.30
2022-08-04T07:40:06.013Z,35.30
2022-08-04T07:42:31.703Z,35.70
2022-08-04T07:43:35.839Z,35.80
2022-08-04T07:44:40.888Z,35.80
2022-08-04T07:45:45.117Z,35.70
2022-08-04T07:46:49.726Z,35.90
2022-08-04T07:48:04.815Z,35.90
2022-08-04T07:49:09.448Z,36.00
2022-08-04T07:50:13.234Z,35.70
2022-08-04T07:51:16.282Z,35.70
2022-08-04T07:52:20.006Z,35.60
2022-08-04T07:53:54.164Z,35.80
2022-08-04T07:54:46.890Z,35.90
2022-08-04T07:55:49.622Z,36.30
2022-08-04T07:56:53.326Z,36.30
2022-08-04T07:57:55.410Z,36.30
2022-08-04T07:58:58.385Z,36.10
2022-08-04T08:00:02.505Z,36.40
2022-08-04T08:01:15.419Z,36.40
2022-08-04T08:02:23.560Z,36.60
2022-08-04T08:03:26.739Z,36.70
2022-08-04T08:04:31.099Z,36.50
2022-08-04T08:05:33.117Z,36.60
2022-08-04T08:06:42.597Z,36.80
2022-08-04T08:07:50.537Z,37.00
2022-08-04T08:08:57.595Z,36.90
2022-08-04T08:10:00.767Z,36.70
2022-08-04T08:11:02.910Z,36.60
2022-08-04T08:12:37.697Z,36.30
2022-08-04T08:13:33.345Z,36.20
2022-08-04T08:14:36.490Z,36.00
2022-08-04T08:15:41.542Z,35.90
2022-08-04T08:16:43.807Z,36.10
2022-08-04T08:17:58.794Z,36.30
2022-08-04T08:19:04.172Z,36.70
2022-08-04T08:20:10.128Z,36.90
2022-08-04T08:21:13.073Z,37.00
2022-08-04T08:22:15.173Z,37.10
2022-08-04T08:23:18.445Z,37.30
2022-08-04T08:24:24.001Z,37.50
2022-08-04T08:25:27.064Z,37.80
2022-08-04T08:26:30.955Z,37.80
2022-08-04T08:27:34.623Z,37.90
2022-08-04T08:28:37.950Z,38.00
2022-08-04T08:29:41.875Z,38.20
2022-08-04T08:30:46.320Z,38.10
2022-08-04T08:32:01.367Z,38.20
2022-08-04T08:33:07.319Z,38.30
2022-08-04T08:34:12.284Z,38.30
2022-08-04T08:35:16.685Z,38.10
2022-08-04T08:36:26.440Z,38.30
2022-08-04T08:37:37.863Z,38.60
2022-08-04T08:38:49.532Z,38.50
2022-08-04T08:39:58.511Z,38.50
2022-08-04T08:41:24.693Z,38.40
2022-08-04T08:42:47.838Z,38.60
2022-08-04T08:44:07.615Z,38.50
2022-08-04T08:45:57.065Z,38.30
2022-08-04T08:47:15.918Z,38.20
2022-08-04T08:48:56.668Z,37.60
2022-08-04T08:50:25.443Z,37.20
2022-08-04T08:51:47.635Z,36.80
2022-08-04T08:53:09.793Z,36.50
2022-08-04T08:54:40.117Z,36.20
2022-08-04T08:55:53.699Z,36.00
2022-08-04T08:57:10.422Z,36.20
2022-08-04T08:58:40.462Z,36.20
2022-08-04T08:59:58.885Z,36.00
2022-08-04T09:01:17.197Z,35.60
2022-08-04T09:03:04.602Z,35.30
2022-08-04T09:04:34.094Z,35.20
2022-08-04T09:05:51.092Z,35.00
2022-08-04T09:07:11.717Z,34.90
2022-08-04T09:08:31.494Z,34.80
2022-08-04T09:09:47.299Z,34.70
2022-08-04T09:10:54.107Z,34.40
2022-08-04T09:12:07.023Z,34.40
2022-08-04T09:13:17.579Z,34.30
2022-08-04T09:14:26.423Z,34.30
2022-08-04T09:15:35.789Z,34.10
2022-08-04T09:16:45.964Z,34.00
2022-08-04T09:17:54.130Z,33.90
2022-08-04T09:19:03.421Z,34.00
2022-08-04T09:20:10.391Z,34.10
2022-08-04T09:21:24.119Z,34.10
2022-08-04T09:22:35.196Z,34.00
2022-08-04T09:23:49.903Z,34.00
2022-08-04T09:25:01.468Z,34.00
2022-08-04T09:26:09.972Z,33.90
2022-08-04T09:27:19.030Z,33.90
2022-08-04T09:28:52.289Z,33.90
2022-08-04T09:29:59.875Z,33.90
2022-08-04T09:31:07.379Z,33.80
2022-08-04T09:32:18.172Z,33.70
2022-08-04T09:33:44.866Z,33.70
2022-08-04T09:35:08.587Z,33.80
2022-08-04T09:36:26.688Z,33.70
2022-08-04T09:37:45.799Z,33.70
2022-08-04T09:39:02.893Z,33.70
2022-08-04T09:40:12.420Z,33.80
2022-08-04T09:41:49.699Z,33.80
2022-08-04T09:43:06.301Z,33.80
2022-08-04T09:44:52.101Z,33.70
2022-08-04T09:45:54.590Z,33.60
2022-08-04T09:47:07.096Z,33.60
2022-08-04T09:48:16.223Z,33.60
2022-08-04T09:49:25.003Z,33.50
2022-08-04T09:50:34.713Z,33.50
2022-08-04T09:51:57.832Z,33.50
2022-08-04T09:53:19.674Z,33.50
2022-08-04T09:54:30.762Z,33.60
2022-08-04T09:55:53.975Z,33.60
2022-08-04T09:57:08.095Z,33.60
2022-08-04T09:58:23.547Z,33.60
2022-08-04T09:59:30.371Z,33.60
2022-08-04T10:00:41.287Z,33.60
2022-08-04T10:01:47.703Z,33.60
2022-08-04T10:03:02.835Z,33.60
2022-08-04T10:04:13.248Z,33.70
2022-08-04T10:05:22.686Z,33.70
2022-08-04T10:06:55.889Z,33.80
2022-08-04T10:08:15.453Z,33.80
2022-08-04T10:09:34.410Z,33.90
2022-08-04T10:10:42.437Z,33.90
2022-08-04T10:11:56.566Z,34.00
2022-08-04T10:13:16.654Z,34.10
2022-08-04T10:14:37.972Z,34.20
2022-08-04T10:15:48.523Z,34.20
2022-08-04T10:17:08.495Z,34.20
2022-08-04T10:18:26.139Z,34.40
2022-08-04T10:19:31.819Z,34.30
2022-08-04T10:20:55.501Z,34.20
2022-08-04T10:22:28.496Z,34.30
2022-08-04T10:23:59.879Z,34.20
2022-08-04T10:25:39.025Z,34.20
2022-08-04T10:26:43.999Z,34.00
2022-08-04T10:27:48.913Z,33.90
2022-08-04T10:28:56.436Z,33.90
2022-08-04T10:30:11.787Z,33.90
2022-08-04T10:31:21.893Z,33.90
2022-08-04T10:32:29.415Z,33.90
2022-08-04T10:33:37.551Z,33.90
2022-08-04T10:34:44.568Z,33.90
2022-08-04T10:35:51.878Z,33.90
2022-08-04T10:37:04.236Z,33.90
2022-08-04T10:38:15.755Z,33.90
2022-08-04T10:39:43.749Z,33.90
2022-08-04T10:40:51.256Z,34.00
2022-08-04T10:42:03.545Z,34.00
2022-08-04T10:43:22.192Z,34.10
2022-08-04T10:44:42.474Z,34.20
2022-08-04T10:45:49.466Z,34.20
2022-08-04T10:47:05.767Z,34.30
2022-08-04T10:48:16.686Z,34.30
2022-08-04T10:49:44.482Z,34.30
2022-08-04T10:50:59.772Z,34.40
2022-08-04T10:52:08.370Z,34.40
2022-08-04T10:53:18.457Z,34.50
2022-08-04T10:54:27.462Z,34.50
2022-08-04T10:56:06.725Z,34.50
2022-08-04T10:57:04.310Z,34.50
2022-08-04T10:58:09.680Z,34.40
2022-08-04T10:59:17.420Z,34.40
2022-08-04T11:00:24.106Z,34.40
2022-08-04T11:02:00.893Z,34.30
2022-08-04T11:03:00.524Z,34.30
2022-08-04T11:04:15.722Z,34.30
2022-08-04T11:05:43.640Z,34.40
2022-08-04T11:06:49.918Z,34.50
2022-08-04T11:08:05.622Z,34.50
2022-08-04T11:09:15.068Z,34.60
2022-08-04T11:10:22.833Z,34.60
2022-08-04T11:11:57.114Z,34.60
2022-08-04T11:13:02.047Z,34.60
2022-08-04T11:14:09.819Z,34.60
2022-08-04T11:15:17.803Z,34.60
2022-08-04T11:16:24.657Z,34.60
2022-08-04T11:17:33.599Z,34.60
2022-08-04T11:18:48.267Z,34.50
2022-08-04T11:20:33.063Z,34.50
2022-08-04T11:21:33.044Z,34.50
2022-08-04T11:22:43.082Z,34.50
2022-08-04T11:23:57.475Z,34.40
2022-08-04T11:25:09.491Z,34.50
2022-08-04T11:26:15.823Z,34.50
2022-08-04T11:27:27.203Z,34.50
2022-08-04T11:28:40.209Z,34.50
2022-08-04T11:30:02.315Z,34.50
2022-08-04T11:31:06.180Z,34.50
2022-08-04T11:32:14.706Z,34.60
2022-08-04T11:33:24.489Z,34.60
2022-08-04T11:34:29.036Z,34.70
2022-08-04T11:35:35.451Z,34.60
2022-08-04T11:36:45.129Z,34.60
2022-08-04T11:38:02.494Z,34.60
2022-08-04T11:39:11.387Z,34.60
2022-08-04T11:40:24.803Z,34.50
2022-08-04T11:41:37.680Z,34.50
2022-08-04T11:42:46.555Z,34.50
2022-08-04T11:44:00.691Z,34.50
2022-08-04T11:45:09.403Z,34.50
2022-08-04T11:46:18.862Z,34.50
2022-08-04T11:47:31.026Z,34.60
2022-08-04T11:48:37.733Z,34.60
2022-08-04T11:49:56.895Z,34.50
2022-08-04T11:51:06.671Z,34.50
2022-08-04T11:52:13.667Z,34.50
2022-08-04T11:53:25.091Z,34.50
2022-08-04T11:54:29.071Z,34.50
2022-08-04T11:56:07.087Z,34.50
2022-08-04T11:56:57.868Z,34.60
2022-08-04T11:58:01.117Z,34.70
2022-08-04T11:59:05.141Z,34.70
2022-08-04T12:00:11.098Z,34.80
2022-08-04T12:01:21.833Z,34.80
2022-08-04T12:03:00.843Z,34.90
2022-08-04T12:04:13.472Z,34.90
2022-08-04T12:05:35.973Z,34.90
2022-08-04T12:07:15.240Z,34.90
2022-08-04T12:08:34.120Z,35.00
2022-08-04T12:09:45.318Z,35.10
2022-08-04T12:10:57.492Z,35.10
2022-08-04T12:12:13.697Z,35.10
2022-08-04T12:13:28.107Z,35.20
2022-08-04T12:14:40.941Z,35.20
2022-08-04T12:15:52.142Z,35.20
2022-08-04T12:17:00.682Z,35.20
2022-08-04T12:18:10.690Z,35.10
2022-08-04T12:19:22.503Z,35.10
2022-08-04T12:20:30.026Z,35.10
2022-08-04T12:21:46.566Z,35.10
2022-08-04T12:22:57.038Z,35.20
2022-08-04T12:24:05.806Z,35.10
2022-08-04T12:25:13.398Z,35.20
2022-08-04T12:26:21.950Z,35.20
2022-08-04T12:27:30.500Z,35.20
2022-08-04T12:28:52.949Z,35.20
2022-08-04T12:30:59.580Z,35.20
2022-08-04T12:31:29.563Z,35.20
2022-08-04T12:32:37.852Z,35.10
2022-08-04T12:34:04.490Z,35.10
2022-08-04T12:35:15.813Z,35.00
2022-08-04T12:36:25.758Z,35.00
2022-08-04T12:37:39.689Z,35.10
2022-08-04T12:38:48.881Z,35.00
2022-08-04T12:40:29.151Z,35.00
2022-08-04T12:41:24.756Z,35.10
2022-08-04T12:42:34.818Z,35.10
2022-08-04T12:43:39.328Z,35.10
2022-08-04T12:44:44.257Z,35.20
2022-08-04T12:45:51.671Z,35.20
2022-08-04T12:46:55.726Z,35.20
2022-08-04T12:48:21.583Z,35.20
2022-08-04T12:49:25.787Z,35.10
2022-08-04T12:50:30.521Z,35.10
2022-08-04T12:52:07.958Z,35.10
2022-08-04T12:53:03.898Z,35.00
2022-08-04T12:54:08.109Z,35.00
2022-08-04T12:55:13.376Z,35.00
2022-08-04T12:56:17.170Z,35.00
2022-08-04T12:57:21.359Z,35.00
2022-08-04T12:58:42.709Z,34.90
2022-08-04T12:59:56.932Z,34.90
2022-08-04T13:02:09.125Z,34.80
2022-08-04T13:02:32.499Z,34.70
2022-08-04T13:03:40.052Z,34.70
2022-08-04T13:04:50.368Z,34.70
2022-08-04T13:05:56.012Z,34.80
2022-08-04T13:07:04.175Z,34.80
2022-08-04T13:08:07.432Z,34.90
2022-08-04T13:09:17.468Z,34.80
2022-08-04T13:10:30.456Z,34.90
2022-08-04T13:11:40.091Z,34.90
2022-08-04T13:12:51.271Z,34.90
2022-08-04T13:14:10.941Z,35.00
2022-08-04T13:15:22.055Z,34.90
2022-08-04T13:16:31.453Z,34.90
2022-08-04T13:17:46.207Z,34.90
2022-08-04T13:18:52.581Z,34.90
2022-08-04T13:19:56.202Z,35.00
2022-08-04T13:21:20.381Z,35.00
2022-08-04T13:22:35.953Z,35.00
2022-08-04T13:24:19.274Z,35.00
2022-08-04T13:26:54.547Z,35.20
2022-08-04T13:28:00.380Z,35.30
2022-08-04T13:29:16.297Z,35.50
2022-08-04T13:30:23.014Z,35.50
2022-08-04T13:30:25.202Z,35.00
2022-08-04T13:31:35.587Z,35.50
2022-08-04T13:32:38.676Z,35.60
2022-08-04T13:33:45.327Z,35.60
2022-08-04T13:34:52.588Z,35.60
2022-08-04T13:35:59.366Z,35.60
2022-08-04T13:37:04.545Z,35.70
2022-08-04T13:38:12.119Z,35.70
2022-08-04T13:39:20.943Z,35.70
2022-08-04T13:40:27.306Z,35.70
2022-08-04T13:41:35.792Z,35.70
2022-08-04T13:42:41.456Z,35.70
2022-08-04T13:44:15.992Z,35.70
2022-08-04T13:45:10.802Z,35.80
2022-08-04T13:46:28.075Z,35.90
2022-08-04T13:47:34.936Z,35.90
2022-08-04T13:48:40.173Z,35.90
2022-08-04T13:50:01.149Z,35.90
2022-08-04T13:51:08.281Z,36.00
2022-08-04T13:52:11.765Z,36.00
2022-08-04T13:53:22.035Z,36.00
2022-08-04T13:54:24.943Z,36.00
2022-08-04T13:55:30.792Z,36.00
2022-08-04T13:56:38.175Z,36.00
2022-08-04T13:57:46.971Z,36.00
2022-08-04T13:58:56.341Z,36.00
2022-08-04T14:00:08.306Z,35.90
2022-08-04T14:01:17.105Z,35.90
2022-08-04T14:02:32.078Z,35.80
2022-08-04T14:03:53.659Z,35.80
2022-08-04T14:05:02.408Z,35.70
2022-08-04T14:06:13.780Z,35.60
2022-08-04T14:07:21.226Z,35.60
2022-08-04T14:08:26.298Z,35.60
2022-08-04T14:09:36.003Z,35.60
2022-08-04T14:10:40.056Z,35.60
2022-08-04T14:12:06.841Z,35.60
2022-08-04T14:13:09.305Z,35.60
2022-08-04T14:14:19.422Z,35.60
2022-08-04T14:16:02.046Z,35.70
2022-08-04T14:17:01.195Z,35.70
2022-08-04T14:18:21.016Z,35.70
2022-08-04T14:19:29.215Z,35.80
2022-08-04T14:20:33.185Z,35.80
2022-08-04T14:21:37.925Z,35.80
2022-08-04T14:22:40.346Z,35.90
2022-08-04T14:23:46.958Z,35.80
2022-08-04T14:24:58.649Z,35.80
2022-08-04T14:26:05.455Z,35.80
2022-08-04T14:27:08.516Z,35.80
2022-08-04T14:28:12.005Z,35.80
2022-08-04T14:29:26.948Z,35.80
2022-08-04T14:30:36.118Z,35.80
2022-08-04T14:31:38.226Z,35.80
2022-08-04T14:34:00.925Z,35.70
2022-08-04T14:34:27.481Z,35.70
2022-08-04T14:35:50.655Z,35.70
2022-08-04T14:37:16.761Z,35.60
2022-08-04T14:38:18.173Z,35.60
2022-08-04T14:39:38.289Z,35.60
2022-08-04T14:40:44.062Z,35.60
2022-08-04T14:41:50.065Z,35.60
2022-08-04T14:42:55.377Z,35.60
2022-08-04T14:44:02.644Z,35.60
2022-08-04T14:45:07.136Z,35.60
2022-08-04T14:46:11.474Z,35.60
2022-08-04T14:47:13.645Z,35.60
2022-08-04T14:48:17.619Z,35.60
2022-08-04T14:49:20.265Z,35.50
2022-08-04T14:50:34.793Z,35.50
2022-08-04T14:51:43.321Z,35.50
2022-08-04T14:52:45.592Z,35.40
2022-08-04T14:53:49.172Z,35.40
2022-08-04T14:54:51.511Z,35.40
2022-08-04T14:55:58.247Z,35.40
2022-08-04T14:57:02.505Z,35.30
2022-08-04T14:58:35.799Z,35.40
2022-08-04T14:59:44.134Z,35.40
2022-08-04T15:01:10.478Z,35.30
2022-08-04T15:02:16.207Z,35.40
2022-08-04T15:03:21.780Z,35.40
2022-08-04T15:04:27.082Z,35.50
2022-08-04T15:06:03.171Z,35.50
2022-08-04T15:06:53.849Z,35.50
2022-08-04T15:07:56.280Z,35.50
2022-08-04T15:09:06.256Z,35.50
2022-08-04T15:10:11.195Z,35.50
2022-08-04T15:11:23.628Z,35.60
2022-08-04T15:12:27.697Z,35.60
2022-08-04T15:13:30.547Z,35.60
2022-08-04T15:14:38.206Z,35.70
2022-08-04T15:15:42.657Z,35.70
2022-08-04T15:17:08.471Z,35.70
2022-08-04T15:18:13.899Z,35.70
2022-08-04T15:19:17.081Z,35.70
2022-08-04T15:20:19.518Z,35.70
2022-08-04T15:21:23.442Z,35.70
2022-08-04T15:22:25.758Z,35.60
2022-08-04T15:23:32.014Z,35.60
2022-08-04T15:24:43.162Z,35.60
2022-08-04T15:25:55.521Z,35.60
2022-08-04T15:27:04.207Z,35.60
2022-08-04T15:28:12.376Z,35.50
2022-08-04T15:29:19.947Z,35.60
2022-08-04T15:30:23.723Z,35.60
2022-08-04T15:32:08.611Z,35.50
2022-08-04T15:32:55.238Z,35.50
2022-08-04T15:33:57.731Z,35.50
2022-08-04T15:35:06.671Z,35.50
2022-08-04T15:36:14.326Z,35.50
2022-08-04T15:37:23.377Z,35.40
2022-08-04T15:38:40.493Z,35.30
2022-08-04T15:39:48.087Z,35.30
2022-08-04T15:40:57.546Z,35.40
2022-08-04T15:42:14.971Z,35.40
2022-08-04T15:43:41.466Z,35.40